createdAt,value
2023-05-06T00:05:00.674Z,10.2
2023-05-06T00:10:06.128Z,10.1
2023-05-06T00:15:12.433Z,10
2023-05-06T00:20:18.776Z,10
2023-05-06T00:25:25.088Z,10
2023-05-06T00:30:31.401Z,10
2023-05-06T00:35:37.737Z,10
2023-05-06T00:40:44.057Z,10
2023-05-06T00:45:50.385Z,9.9
2023-05-06T00:50:56.716Z,9.8
2023-05-06T00:56:03.036Z,9.8
2023-05-06T01:01:09.357Z,9.8
2023-05-06T01:06:15.691Z,9.8
2023-05-06T01:11:22.000Z,9.8
2023-05-06T01:16:28.331Z,9.7
2023-05-06T01:21:33.763Z,9.7
2023-05-06T01:26:40.092Z,9.7
2023-05-06T01:31:46.416Z,9.6
2023-05-06T01:36:52.745Z,9.7
2023-05-06T01:41:59.072Z,9.6
2023-05-06T01:47:05.404Z,9.5
2023-05-06T01:52:11.710Z,9.4
2023-05-06T01:57:18.036Z,9.4
2023-05-06T02:02:24.364Z,9.4
2023-05-06T02:07:30.684Z,9.3
2023-05-06T02:12:37.012Z,9.3
2023-05-06T02:17:43.357Z,9.3
2023-05-06T02:22:49.654Z,9.2
2023-05-06T02:27:55.108Z,9.2
2023-05-06T02:33:01.434Z,9.2
2023-05-06T02:38:07.760Z,9.2
2023-05-06T02:43:14.103Z,9.2
2023-05-06T02:48:20.392Z,9.2
2023-05-06T02:53:26.742Z,9.2
2023-05-06T02:58:33.039Z,9.2
2023-05-06T03:03:39.365Z,9.1
2023-05-06T03:08:45.682Z,9.1
2023-05-06T03:13:52.015Z,9.1
2023-05-06T03:18:58.332Z,9
2023-05-06T03:24:04.671Z,9
2023-05-06T03:29:10.977Z,9
2023-05-06T03:34:16.431Z,8.9
2023-05-06T03:39:22.748Z,8.9
2023-05-06T03:44:29.088Z,8.9
2023-05-06T03:49:35.383Z,8.9
2023-05-06T03:54:41.726Z,8.9
2023-05-06T03:59:48.040Z,8.9
2023-05-06T04:04:54.362Z,9
2023-05-06T04:10:00.687Z,9
2023-05-06T04:15:07.014Z,9
2023-05-06T04:20:13.328Z,9
2023-05-06T04:25:19.661Z,9
2023-05-06T04:30:25.981Z,9
2023-05-06T04:35:32.310Z,9
2023-05-06T04:40:38.635Z,9
2023-05-06T04:45:44.076Z,9.1
2023-05-06T04:50:50.439Z,9.2
2023-05-06T04:55:56.752Z,9.2
2023-05-06T05:01:03.076Z,9.2
2023-05-06T05:06:09.393Z,9.2
2023-05-06T05:11:15.715Z,9.3
2023-05-06T05:16:22.057Z,9.3
2023-05-06T05:21:28.372Z,9.3
2023-05-06T05:26:34.686Z,9.3
2023-05-06T05:31:41.015Z,9.4
2023-05-06T05:36:47.343Z,9.5
2023-05-06T05:41:53.650Z,9.6
2023-05-06T05:46:59.985Z,9.7
2023-05-06T05:52:05.416Z,9.8
2023-05-06T05:57:11.750Z,9.8
2023-05-06T06:02:18.062Z,9.8
2023-05-06T06:07:24.381Z,9.7
2023-05-06T06:12:30.700Z,9.6
2023-05-06T06:17:37.032Z,9.6
2023-05-06T06:22:43.370Z,9.8
2023-05-06T06:27:49.679Z,10
2023-05-06T06:32:56.014Z,10.1
2023-05-06T06:38:02.334Z,10.4
2023-05-06T06:43:08.643Z,10.2
2023-05-06T06:48:14.972Z,10
2023-05-06T06:53:21.316Z,9.9
2023-05-06T06:58:26.752Z,9.8
2023-05-06T07:03:33.065Z,9.8
2023-05-06T07:08:39.400Z,9.7
2023-05-06T07:13:45.714Z,9.8
2023-05-06T07:18:52.023Z,10.1
2023-05-06T07:23:58.367Z,10.1
2023-05-06T07:29:04.673Z,10.1
2023-05-06T07:34:10.999Z,10.6
2023-05-06T07:39:17.337Z,11.1
2023-05-06T07:44:23.677Z,11.4
2023-05-06T07:49:29.988Z,11.1
2023-05-06T07:54:36.302Z,10.9
2023-05-06T07:59:42.618Z,10.9
2023-05-06T08:04:48.066Z,10.7
2023-05-06T08:09:54.397Z,10.5
2023-05-06T08:15:00.717Z,10.4
2023-05-06T08:20:07.035Z,10.4
2023-05-06T08:25:13.354Z,10.3
2023-05-06T08:30:19.678Z,10.2
2023-05-06T08:35:26.008Z,10.4
2023-05-06T08:40:32.313Z,10.4
2023-05-06T08:45:38.656Z,10.6
2023-05-06T08:50:44.969Z,10.7
2023-05-06T08:55:51.304Z,11
2023-05-06T09:00:57.614Z,11.1
2023-05-06T09:06:03.938Z,11.3
2023-05-06T09:11:09.377Z,11.1
2023-05-06T09:16:15.688Z,11.1
2023-05-06T09:26:28.340Z,11.3
2023-05-06T09:31:34.661Z,11.2
2023-05-06T09:36:41.005Z,11.5
2023-05-06T09:41:47.317Z,11.6
2023-05-06T09:46:53.652Z,11.8
2023-05-06T09:51:59.952Z,11.6
2023-05-06T09:57:06.288Z,11.5
2023-05-06T10:02:12.609Z,11.7
2023-05-06T10:07:18.934Z,11.4
2023-05-06T10:12:25.253Z,11.2
2023-05-06T10:17:30.686Z,11
2023-05-06T10:22:37.008Z,10.8
2023-05-06T10:27:43.339Z,10.7
2023-05-06T10:32:49.653Z,10.7
2023-05-06T10:37:55.972Z,10.7
2023-05-06T10:43:02.342Z,10.6
2023-05-06T10:48:08.624Z,10.7
2023-05-06T10:53:14.925Z,10.7
2023-05-06T10:58:21.259Z,11
2023-05-06T11:03:27.582Z,10.9
2023-05-06T11:08:33.900Z,10.9
2023-05-06T11:13:40.262Z,10.8
2023-05-06T11:18:46.553Z,10.6
2023-05-06T11:23:52.879Z,10.8
2023-05-06T11:28:58.326Z,11
2023-05-06T11:34:04.657Z,11.3
2023-05-06T11:39:10.954Z,11.3
2023-05-06T11:44:17.298Z,11.3
2023-05-06T11:49:23.612Z,11.4
2023-05-06T11:54:29.928Z,11.3
2023-05-06T11:59:36.230Z,11.3
2023-05-06T12:04:42.569Z,11.3
2023-05-06T12:09:48.898Z,11.2
2023-05-06T12:14:55.196Z,11.3
2023-05-06T12:20:01.527Z,11.4
2023-05-06T12:25:07.861Z,11.4
2023-05-06T12:30:14.186Z,10.9
2023-05-06T12:35:20.504Z,10.9
2023-05-06T12:40:26.828Z,11
2023-05-06T12:45:33.147Z,11.3
2023-05-06T12:50:39.472Z,11.4
2023-05-06T12:55:45.785Z,11.1
2023-05-06T13:00:52.108Z,10.9
2023-05-06T13:05:58.437Z,11.1
2023-05-06T13:11:04.757Z,11.4
2023-05-06T13:16:11.071Z,11.6
2023-05-06T13:21:17.399Z,11.6
2023-05-06T13:26:23.743Z,11.6
2023-05-06T13:31:29.163Z,11.9
2023-05-06T13:36:35.486Z,12.2
2023-05-06T13:41:41.807Z,13
2023-05-06T13:46:48.125Z,13.8
2023-05-06T13:51:54.446Z,12.8
2023-05-06T13:57:00.757Z,12.4
2023-05-06T14:02:07.079Z,12.1
2023-05-06T14:07:13.416Z,11.6
2023-05-06T14:12:19.725Z,11.5
2023-05-06T14:17:26.037Z,11.6
2023-05-06T14:22:32.370Z,11.4
2023-05-06T14:27:37.805Z,11.4
2023-05-06T14:32:44.116Z,11.7
2023-05-06T14:37:50.495Z,11.9
2023-05-06T14:42:56.766Z,11.5
2023-05-06T14:48:03.134Z,11
2023-05-06T14:53:09.459Z,10.9
2023-05-06T14:58:15.775Z,10.9
2023-05-06T15:03:22.098Z,10.7
2023-05-06T15:08:28.421Z,10.7
2023-05-06T15:13:34.731Z,10.6
2023-05-06T15:18:41.109Z,10.5
2023-05-06T15:23:47.384Z,10.5
2023-05-06T15:28:53.718Z,10.4
2023-05-06T15:34:00.017Z,10.3
2023-05-06T15:39:06.354Z,10.2
2023-05-06T15:44:11.793Z,10.3
2023-05-06T15:49:18.105Z,10.4
2023-05-06T15:54:24.431Z,10.3
2023-05-06T15:59:30.761Z,10.2
2023-05-06T16:04:37.086Z,10
2023-05-06T16:09:43.416Z,9.9
2023-05-06T16:14:49.741Z,9.9
2023-05-06T16:19:56.110Z,9.8
2023-05-06T16:25:02.376Z,9.7
2023-05-06T16:30:08.744Z,9.4
2023-05-06T16:35:15.029Z,9.3
2023-05-06T16:40:21.352Z,9.2
2023-05-06T16:45:27.680Z,9.2
2023-05-06T16:50:33.984Z,9.1
2023-05-06T16:55:39.454Z,9
2023-05-06T17:00:45.764Z,8.9
2023-05-06T17:05:52.092Z,8.8
2023-05-06T17:10:58.435Z,8.7
2023-05-06T17:16:04.746Z,8.7
2023-05-06T17:21:11.060Z,8.7
2023-05-06T17:26:17.390Z,8.7
2023-05-06T17:31:23.855Z,8.7
2023-05-06T17:36:30.228Z,8.6
2023-05-06T17:41:36.591Z,8.5
2023-05-06T17:46:42.818Z,8.5
2023-05-06T17:51:49.151Z,8.4
2023-05-06T17:56:55.506Z,8.4
2023-05-06T18:02:00.927Z,8.4
2023-05-06T18:07:07.264Z,8.3
2023-05-06T18:12:13.567Z,8.3
2023-05-06T18:17:19.908Z,8.3
2023-05-06T18:22:26.362Z,8.3
2023-05-06T18:27:32.618Z,8.3
2023-05-06T18:32:38.706Z,8.3
2023-05-06T18:37:45.207Z,8.1
2023-05-06T18:42:51.547Z,8.1
2023-05-06T18:47:57.803Z,8.1
2023-05-06T18:53:04.179Z,8
2023-05-06T18:58:10.421Z,8.1
2023-05-06T19:03:16.846Z,8
2023-05-06T19:08:22.331Z,8
2023-05-06T19:13:28.451Z,7.9
2023-05-06T19:18:35.026Z,7.9
2023-05-06T19:23:41.080Z,7.9
2023-05-06T19:28:47.530Z,7.8
2023-05-06T19:33:53.959Z,7.8
2023-05-06T19:39:00.116Z,7.8
2023-05-06T19:44:06.529Z,7.8
2023-05-06T19:49:12.843Z,7.8
2023-05-06T19:54:19.038Z,7.8
2023-05-06T19:59:25.523Z,7.8
2023-05-06T20:04:31.869Z,7.8
2023-05-06T20:09:37.999Z,7.8
2023-05-06T20:14:44.452Z,7.8
2023-05-06T20:19:49.937Z,7.8
2023-05-06T20:24:56.076Z,7.7
2023-05-06T20:30:02.656Z,7.8
2023-05-06T20:35:08.989Z,7.8
2023-05-06T20:40:15.294Z,7.8
2023-05-06T20:45:21.548Z,7.7
2023-05-06T20:50:27.779Z,7.7
2023-05-06T20:55:34.104Z,7.7
2023-05-06T21:00:40.675Z,7.7
2023-05-06T21:05:46.877Z,7.7
2023-05-06T21:10:53.252Z,7.7
2023-05-06T21:15:59.550Z,7.6
2023-05-06T21:21:05.894Z,7.7
2023-05-06T21:26:12.083Z,7.6
2023-05-06T21:31:17.611Z,7.7
2023-05-06T21:36:24.026Z,7.7
2023-05-06T21:41:30.373Z,7.7
2023-05-06T21:46:36.494Z,7.7
2023-05-06T21:51:43.023Z,7.7
2023-05-06T22:01:55.602Z,7.7
2023-05-06T22:07:01.962Z,7.7
2023-05-06T22:12:08.298Z,7.7
2023-05-06T22:17:14.579Z,7.7
2023-05-06T22:22:20.917Z,7.7
2023-05-06T22:27:27.298Z,7.7
2023-05-06T22:32:33.393Z,7.7
2023-05-06T22:37:39.129Z,7.7
2023-05-06T22:42:45.348Z,7.7
2023-05-06T22:47:51.657Z,7.7
2023-05-06T22:52:58.041Z,7.7
2023-05-06T22:58:04.203Z,7.7
2023-05-06T23:03:10.678Z,7.7
2023-05-06T23:08:17.006Z,7.7
2023-05-06T23:13:23.308Z,7.7
2023-05-06T23:18:29.612Z,7.7
2023-05-06T23:23:35.912Z,7.6
2023-05-06T23:28:42.159Z,7.6
2023-05-06T23:33:48.518Z,7.7
2023-05-06T23:38:54.827Z,7.7
2023-05-06T23:44:00.195Z,7.6
2023-05-06T23:49:06.517Z,7.6
2023-05-06T23:54:12.885Z,7.6
2023-05-06T23:59:19.262Z,7.6
